createdAt,value
2022-09-10T00:01:25.863Z,1808.70
2022-09-10T00:04:00.618Z,1900.90
2022-09-10T00:06:43.857Z,2026.77
2022-09-10T00:09:16.036Z,1889.70
2022-09-10T00:11:52.617Z,1938.00
2022-09-10T00:14:30.326Z,1943.50
2022-09-10T00:17:00.585Z,1799.67
2022-09-10T00:19:31.622Z,1749.97
2022-09-10T00:22:12.365Z,1808.63
2022-09-10T00:24:59.654Z,2069.57
2022-09-10T00:27:30.736Z,1951.97
2022-09-10T00:30:00.932Z,1925.53
2022-09-10T00:32:45.193Z,1891.17
2022-09-10T00:35:21.015Z,1930.57
2022-09-10T00:37:53.853Z,1780.23
2022-09-10T00:40:42.944Z,1788.30
2022-09-10T00:43:20.663Z,1786.77
2022-09-10T00:45:59.235Z,1746.10
2022-09-10T00:48:41.764Z,1818.63
2022-09-10T00:51:17.153Z,1959.57
2022-09-10T00:53:52.439Z,1922.57
2022-09-10T00:56:30.695Z,1928.47
2022-09-10T00:59:07.154Z,1889.30
2022-09-10T01:01:46.617Z,2002.03
2022-09-10T01:04:23.179Z,1886.30
2022-09-10T01:07:00.269Z,1836.43
2022-09-10T01:09:37.684Z,1839.27
2022-09-10T01:12:24.579Z,1982.53
2022-09-10T01:15:10.756Z,1936.93
2022-09-10T01:18:13.359Z,1857.50
2022-09-10T01:21:07.857Z,1862.90
2022-09-10T01:24:12.860Z,2057.07
2022-09-10T01:27:34.375Z,1966.40
2022-09-10T01:30:31.012Z,1805.60
2022-09-10T01:33:27.137Z,2001.13
2022-09-10T01:36:11.021Z,2158.97
2022-09-10T01:38:57.309Z,1997.93
2022-09-10T01:41:35.673Z,1917.63
2022-09-10T01:44:15.842Z,2037.57
2022-09-10T01:47:15.196Z,1883.20
2022-09-10T01:50:18.060Z,1862.33
2022-09-10T01:53:32.606Z,1677.37
2022-09-10T01:56:25.880Z,1673.03
2022-09-10T01:59:19.672Z,1805.30
2022-09-10T02:02:06.132Z,1897.33
2022-09-10T02:04:46.553Z,1750.80
2022-09-10T02:07:27.042Z,1847.60
2022-09-10T02:10:03.716Z,1829.53
2022-09-10T02:12:50.865Z,1945.70
2022-09-10T02:15:44.465Z,1791.47
2022-09-10T02:18:29.322Z,1766.07
2022-09-10T02:21:09.270Z,2080.23
2022-09-10T02:24:03.681Z,1980.43
2022-09-10T02:27:02.885Z,2029.50
2022-09-10T02:29:44.840Z,2065.97
2022-09-10T02:32:29.129Z,2203.67
2022-09-10T02:35:08.173Z,2167.93
2022-09-10T02:37:52.697Z,1957.57
2022-09-10T02:40:28.678Z,1841.13
2022-09-10T02:43:02.203Z,1888.40
2022-09-10T02:45:40.908Z,2032.27
2022-09-10T02:48:13.576Z,2110.33
2022-09-10T02:50:52.995Z,2065.90
2022-09-10T02:53:23.010Z,2086.77
2022-09-10T02:56:07.350Z,2018.77
2022-09-10T02:58:41.617Z,2053.73
2022-09-10T03:01:24.057Z,2155.00
2022-09-10T03:04:08.494Z,2081.07
2022-09-10T03:06:43.970Z,2033.77
2022-09-10T03:09:28.984Z,1975.67
2022-09-10T03:12:17.555Z,1704.57
2022-09-10T03:14:47.653Z,1708.70
2022-09-10T03:17:27.531Z,2056.63
2022-09-10T03:20:04.409Z,1946.37
2022-09-10T03:22:42.710Z,1815.17
2022-09-10T03:25:23.069Z,1653.40
2022-09-10T03:28:02.289Z,1658.07
2022-09-10T03:30:39.479Z,1649.23
2022-09-10T03:33:14.104Z,1540.73
2022-09-10T03:35:56.761Z,1371.03
2022-09-10T03:38:39.827Z,1147.37
2022-09-10T03:41:31.526Z,1284.97
2022-09-10T03:44:05.255Z,1019.50
2022-09-10T03:46:33.905Z,1479.33
2022-09-10T03:49:04.655Z,1569.33
2022-09-10T03:51:35.221Z,1829.33
2022-09-10T03:54:06.163Z,2044.20
2022-09-10T03:56:35.577Z,1849.63
2022-09-10T03:59:04.092Z,1903.43
2022-09-10T04:01:32.507Z,1815.03
2022-09-10T04:04:01.319Z,1995.77
2022-09-10T04:06:32.719Z,1752.40
2022-09-10T04:09:07.483Z,1960.97
2022-09-10T04:11:55.358Z,1884.93
2022-09-10T04:14:46.743Z,1647.63
2022-09-10T04:17:20.942Z,1931.50
2022-09-10T04:19:52.783Z,1668.07
2022-09-10T04:22:23.143Z,1856.60
2022-09-10T04:24:55.847Z,1856.30
2022-09-10T04:27:26.654Z,1905.33
2022-09-10T04:29:57.509Z,2025.20
2022-09-10T04:32:27.957Z,1992.60
2022-09-10T04:34:59.063Z,2079.80
2022-09-10T04:37:29.387Z,2209.40
2022-09-10T04:40:02.033Z,2259.67
2022-09-10T04:42:36.647Z,2188.80
2022-09-10T04:45:08.338Z,2091.67
2022-09-10T04:47:39.316Z,2266.67
2022-09-10T04:50:11.315Z,2259.97
2022-09-10T04:52:43.289Z,2266.67
2022-09-10T04:55:15.941Z,2266.67
2022-09-10T04:57:46.163Z,2244.27
2022-09-10T05:00:17.594Z,2200.00
2022-09-10T05:02:49.631Z,2125.87
2022-09-10T05:05:22.384Z,2158.43
2022-09-10T05:07:53.161Z,2184.07
2022-09-10T05:10:25.386Z,2204.40
2022-09-10T05:12:55.842Z,2165.60
2022-09-10T05:15:28.521Z,2184.90
2022-09-10T05:17:59.381Z,2200.00
2022-09-10T05:20:31.745Z,2171.07
2022-09-10T05:23:03.057Z,2186.07
2022-09-10T05:25:35.654Z,1940.17
2022-09-10T05:28:06.416Z,2031.33
2022-09-10T05:30:36.821Z,2127.10
2022-09-10T05:33:07.327Z,2165.50
2022-09-10T05:35:38.405Z,2168.50
2022-09-10T05:38:11.493Z,2222.07
2022-09-10T05:40:44.609Z,2173.20
2022-09-10T05:43:15.000Z,2240.97
2022-09-10T05:45:47.337Z,2266.67
2022-09-10T05:48:18.272Z,2263.17
2022-09-10T05:50:48.431Z,2232.77
2022-09-10T05:53:18.677Z,2251.03
2022-09-10T05:55:50.682Z,2266.67
2022-09-10T05:58:21.890Z,2254.40
2022-09-10T06:00:53.517Z,2266.67
2022-09-10T06:03:24.615Z,2266.00
2022-09-10T06:06:00.346Z,2170.77
2022-09-10T06:08:36.363Z,2266.67
2022-09-10T06:11:17.700Z,2253.53
2022-09-10T06:13:51.935Z,2244.20
2022-09-10T06:16:23.551Z,2266.67
2022-09-10T06:18:54.217Z,2247.60
2022-09-10T06:21:28.434Z,2137.67
2022-09-10T06:24:00.940Z,2263.53
2022-09-10T06:26:37.172Z,2186.63
2022-09-10T06:29:11.715Z,2244.77
2022-09-10T06:31:44.107Z,2179.33
2022-09-10T06:34:19.190Z,2218.07
2022-09-10T06:36:50.721Z,2219.07
2022-09-10T06:39:21.531Z,2166.47
2022-09-10T06:41:56.125Z,2104.80
2022-09-10T06:44:45.321Z,2259.13
2022-09-10T06:50:16.918Z,2227.90
2022-09-10T06:52:49.727Z,2255.37
2022-09-10T06:55:23.468Z,2141.30
2022-09-10T06:57:55.223Z,2152.47
2022-09-10T07:00:25.809Z,2042.10
2022-09-10T07:02:58.378Z,2251.03
2022-09-10T07:05:29.502Z,2185.67
2022-09-10T07:08:01.953Z,2189.83
2022-09-10T07:10:32.780Z,2106.40
2022-09-10T07:13:04.872Z,2252.73
2022-09-10T07:15:36.842Z,2143.73
2022-09-10T07:18:07.420Z,2044.93
2022-09-10T07:20:40.325Z,2168.30
2022-09-10T07:23:12.886Z,2109.97
2022-09-10T07:25:45.224Z,2205.57
2022-09-10T07:28:36.325Z,2133.33
2022-09-10T07:31:15.881Z,2037.17
2022-09-10T07:33:49.832Z,2175.27
2022-09-10T07:36:20.650Z,2223.03
2022-09-10T07:38:54.696Z,2066.37
2022-09-10T07:41:29.996Z,2242.27
2022-09-10T07:44:05.019Z,2265.77
2022-09-10T07:46:46.406Z,2161.47
2022-09-10T07:49:18.625Z,2199.47
2022-09-10T07:51:57.686Z,2217.23
2022-09-10T07:54:32.302Z,2149.47
2022-09-10T07:57:04.702Z,2030.50
2022-09-10T07:59:37.363Z,2099.30
2022-09-10T08:02:10.287Z,2227.70
2022-09-10T08:04:40.967Z,1967.50
2022-09-10T08:07:17.249Z,2044.60
2022-09-10T08:09:48.655Z,1982.70
2022-09-10T08:12:22.155Z,1920.53
2022-09-10T08:14:56.907Z,2064.07
2022-09-10T08:17:29.730Z,1918.60
2022-09-10T08:20:01.286Z,2261.67
2022-09-10T08:22:32.134Z,2176.00
2022-09-10T08:25:03.687Z,1886.40
2022-09-10T08:27:35.578Z,2266.67
2022-09-10T08:30:11.660Z,2210.03
2022-09-10T08:32:42.479Z,2123.57
2022-09-10T08:35:15.061Z,2193.67
2022-09-10T08:37:45.508Z,2179.00
2022-09-10T08:40:19.439Z,2164.67
2022-09-10T08:42:52.856Z,2186.67
2022-09-10T08:45:33.034Z,2164.03
2022-09-10T08:48:15.753Z,2194.30
2022-09-10T08:50:52.600Z,2193.90
2022-09-10T08:53:35.143Z,2257.07
2022-09-10T08:56:12.926Z,2266.67
2022-09-10T08:58:46.568Z,2264.57
2022-09-10T09:01:30.431Z,2241.77
2022-09-10T09:04:07.018Z,2191.33
2022-09-10T09:06:45.387Z,2264.80
2022-09-10T09:09:16.698Z,2214.87
2022-09-10T09:11:56.278Z,2266.67
2022-09-10T09:14:42.954Z,2089.23
2022-09-10T09:17:31.492Z,2168.73
2022-09-10T09:20:15.267Z,2108.70
2022-09-10T09:22:53.737Z,2197.90
2022-09-10T09:25:34.297Z,2083.90
2022-09-10T09:28:14.252Z,2057.23
2022-09-10T09:30:49.604Z,1985.07
2022-09-10T09:33:30.693Z,1733.10
2022-09-10T09:36:16.596Z,1423.10
2022-09-10T09:38:50.914Z,1787.50
2022-09-10T09:41:31.807Z,1934.10
2022-09-10T09:44:09.175Z,2038.03
2022-09-10T09:46:40.247Z,2097.73
2022-09-10T09:49:16.169Z,2266.67
2022-09-10T09:51:51.751Z,2133.07
2022-09-10T09:55:03.205Z,1961.00
2022-09-10T09:57:20.489Z,2166.87
2022-09-10T09:59:51.876Z,2266.67
2022-09-10T10:02:25.151Z,2077.67
2022-09-10T10:05:04.555Z,2004.30
2022-09-10T10:07:36.223Z,2088.83
2022-09-10T10:10:09.055Z,1942.57
2022-09-10T10:12:46.407Z,1987.73
2022-09-10T10:15:37.646Z,2098.60
2022-09-10T10:18:31.727Z,2122.77
2022-09-10T10:21:16.568Z,1976.40
2022-09-10T10:23:48.049Z,1986.57
2022-09-10T10:26:31.097Z,2114.97
2022-09-10T10:29:06.631Z,2155.33
2022-09-10T10:31:41.243Z,2076.20
2022-09-10T10:34:30.352Z,2051.00
2022-09-10T10:37:10.557Z,2000.77
2022-09-10T10:40:01.975Z,2260.97
2022-09-10T10:42:36.966Z,1999.80
2022-09-10T10:45:37.200Z,2042.07
2022-09-10T10:48:12.943Z,2197.57
2022-09-10T10:50:53.139Z,2221.23
2022-09-10T10:53:40.401Z,2079.33
2022-09-10T10:56:18.768Z,2003.90
2022-09-10T10:59:16.683Z,2226.70
2022-09-10T11:01:51.278Z,2194.13
2022-09-10T11:04:33.191Z,2180.97
2022-09-10T11:07:12.855Z,2266.67
2022-09-10T11:09:50.278Z,2186.73
2022-09-10T11:12:28.728Z,2240.93
2022-09-10T11:15:03.400Z,2118.77
2022-09-10T11:17:39.707Z,2015.73
2022-09-10T11:20:28.432Z,2266.67
2022-09-10T11:23:10.596Z,2266.67
2022-09-10T11:25:51.654Z,2266.67
2022-09-10T11:28:27.457Z,2254.90
2022-09-10T11:31:03.552Z,2209.27
2022-09-10T11:33:39.998Z,2176.40
2022-09-10T11:36:16.645Z,2179.50
2022-09-10T11:38:55.887Z,2263.23
2022-09-10T11:41:31.837Z,2165.03
2022-09-10T11:44:14.508Z,2219.63
2022-09-10T11:46:51.270Z,2180.77
2022-09-10T11:49:26.471Z,2244.33
2022-09-10T11:51:58.113Z,2266.67
2022-09-10T11:54:31.514Z,2193.30
2022-09-10T11:57:09.070Z,2262.20
2022-09-10T11:59:57.094Z,1599.57
2022-09-10T12:02:46.074Z,2266.67
2022-09-10T12:05:24.945Z,2266.67
2022-09-10T12:08:04.892Z,2266.67
2022-09-10T12:10:43.294Z,2266.67
2022-09-10T12:13:16.605Z,2266.67
2022-09-10T12:15:56.036Z,2266.67
2022-09-10T12:18:29.026Z,2266.67
2022-09-10T12:21:05.990Z,2266.67
2022-09-10T12:23:40.329Z,2266.67
2022-09-10T12:26:14.331Z,2266.67
2022-09-10T12:29:07.511Z,2266.67
2022-09-10T12:32:12.276Z,2266.67
2022-09-10T12:34:42.834Z,2266.67
2022-09-10T12:37:23.126Z,2266.67
2022-09-10T12:40:32.566Z,2266.67
2022-09-10T12:43:47.282Z,2266.67
2022-09-10T12:46:22.725Z,2266.67
2022-09-10T12:49:07.739Z,2266.67
2022-09-10T12:51:56.645Z,2266.67
2022-09-10T12:54:44.236Z,2266.67
2022-09-10T12:57:27.038Z,2266.67
2022-09-10T13:00:13.411Z,2266.67
2022-09-10T13:02:52.453Z,2266.67
2022-09-10T13:05:28.306Z,2266.67
2022-09-10T13:08:06.113Z,2266.67
2022-09-10T13:10:36.998Z,2266.67
2022-09-10T13:13:20.649Z,2266.67
2022-09-10T13:15:53.126Z,2266.67
2022-09-10T13:18:28.907Z,2266.67
2022-09-10T13:20:59.743Z,2266.67
2022-09-10T13:23:54.315Z,2266.67
2022-09-10T13:26:52.322Z,2266.67
2022-09-10T13:29:33.329Z,2266.67
2022-09-10T13:32:08.294Z,2266.67
2022-09-10T13:35:05.550Z,2266.67
2022-09-10T13:37:54.330Z,2266.67
2022-09-10T13:40:44.439Z,2266.67
2022-09-10T13:43:29.258Z,2266.67
2022-09-10T13:46:03.663Z,2266.67
2022-09-10T13:48:46.150Z,2266.67
2022-09-10T13:51:26.334Z,2266.67
2022-09-10T13:54:01.724Z,2266.67
2022-09-10T13:56:33.452Z,2266.67
2022-09-10T13:59:08.695Z,2266.67
2022-09-10T14:01:54.031Z,2266.67
2022-09-10T14:04:27.796Z,2266.67
2022-09-10T14:07:13.516Z,2266.67
2022-09-10T14:09:52.401Z,2266.67
2022-09-10T14:12:34.078Z,2266.67
2022-09-10T14:15:14.043Z,2266.67
2022-09-10T14:17:50.839Z,2266.67
2022-09-10T14:20:26.903Z,2266.67
2022-09-10T14:23:02.404Z,2266.67
2022-09-10T14:25:36.314Z,2266.67
2022-09-10T14:28:35.039Z,2266.67
2022-09-10T14:31:21.864Z,2266.67
2022-09-10T14:33:52.661Z,2266.67
2022-09-10T14:36:31.222Z,2266.67
2022-09-10T14:39:07.441Z,2266.67
2022-09-10T14:41:37.743Z,2266.67
2022-09-10T14:44:18.960Z,2266.67
2022-09-10T14:46:54.189Z,2266.67
2022-09-10T14:49:27.540Z,2266.67
2022-09-10T14:52:00.129Z,2266.67
2022-09-10T14:54:33.627Z,2266.67
2022-09-10T14:57:06.604Z,2266.67
2022-09-10T14:59:38.680Z,2266.67
2022-09-10T15:02:16.837Z,2266.67
2022-09-10T15:04:47.083Z,2266.67
2022-09-10T15:07:17.495Z,2266.67
2022-09-10T15:09:49.445Z,2266.67
2022-09-10T15:12:25.265Z,2266.67
2022-09-10T15:14:56.314Z,2266.67
2022-09-10T15:17:28.028Z,2266.67
2022-09-10T15:19:58.320Z,2266.67
2022-09-10T15:22:31.433Z,2266.67
2022-09-10T15:25:11.681Z,2266.67
2022-09-10T15:27:42.079Z,2266.67
2022-09-10T15:30:12.427Z,2266.67
2022-09-10T15:32:42.720Z,2266.67
2022-09-10T15:35:13.127Z,2266.67
2022-09-10T15:37:45.284Z,2266.67
2022-09-10T15:40:17.258Z,2266.67
2022-09-10T15:42:48.598Z,2266.67
2022-09-10T15:45:19.077Z,2266.67
2022-09-10T15:47:49.298Z,2266.67
2022-09-10T15:50:19.550Z,2266.67
2022-09-10T15:52:50.106Z,2266.67
2022-09-10T15:55:21.747Z,2266.67
2022-09-10T15:57:52.996Z,2266.67
2022-09-10T16:00:23.166Z,2266.67
2022-09-10T16:02:54.309Z,2266.67
2022-09-10T16:05:24.662Z,2266.67
2022-09-10T16:07:55.223Z,2266.67
2022-09-10T16:10:27.379Z,2266.67
2022-09-10T16:12:57.998Z,2266.67
2022-09-10T16:15:28.356Z,2266.67
2022-09-10T16:17:59.822Z,2266.67
2022-09-10T16:20:30.310Z,2266.67
2022-09-10T16:23:00.533Z,2266.67
2022-09-10T16:25:32.113Z,2266.67
2022-09-10T16:28:02.659Z,2266.67
2022-09-10T16:30:32.771Z,2266.67
2022-09-10T16:33:02.877Z,2266.67
2022-09-10T16:35:35.730Z,2266.67
2022-09-10T16:38:05.862Z,2266.67
2022-09-10T16:40:37.371Z,2266.67
2022-09-10T16:43:07.657Z,2266.67
2022-09-10T16:45:37.770Z,2266.67
2022-09-10T16:48:08.319Z,2266.67
2022-09-10T16:50:38.496Z,2266.67
2022-09-10T16:53:11.965Z,2266.67
2022-09-10T16:55:43.936Z,2266.67
2022-09-10T16:58:14.667Z,2266.67
2022-09-10T17:00:45.870Z,2266.67
2022-09-10T17:03:16.015Z,2266.67
2022-09-10T17:05:46.739Z,2266.67
2022-09-10T17:08:16.945Z,2266.67
2022-09-10T17:10:48.577Z,2266.67
2022-09-10T17:13:18.977Z,2266.67
2022-09-10T17:15:49.066Z,2266.67
2022-09-10T17:18:19.181Z,2266.67
2022-09-10T17:20:49.353Z,2266.67
2022-09-10T17:23:19.590Z,2266.67
2022-09-10T17:25:51.075Z,2266.67
2022-09-10T17:28:21.487Z,2266.67
2022-09-10T17:30:56.229Z,2266.67
2022-09-10T17:33:27.454Z,2266.67
2022-09-10T17:35:58.316Z,2266.67
2022-09-10T17:38:29.456Z,2266.67
2022-09-10T17:41:02.766Z,2266.67
2022-09-10T17:43:37.126Z,2266.67
2022-09-10T17:46:09.669Z,2266.67
2022-09-10T17:48:40.062Z,2266.67
2022-09-10T17:51:14.338Z,2266.67
2022-09-10T17:53:45.238Z,2266.67
2022-09-10T17:56:18.912Z,2266.67
2022-09-10T17:58:50.774Z,2266.67
2022-09-10T18:01:24.169Z,2266.67
2022-09-10T18:03:55.229Z,2266.67
2022-09-10T18:06:25.570Z,2266.67
2022-09-10T18:08:58.922Z,2266.67
2022-09-10T18:11:32.346Z,2266.67
2022-09-10T18:14:02.913Z,2266.67
2022-09-10T18:16:34.467Z,2266.67
2022-09-10T18:19:13.024Z,2266.67
2022-09-10T18:21:46.318Z,2266.67
2022-09-10T18:24:19.026Z,2266.67
2022-09-10T18:26:53.736Z,2266.67
2022-09-10T18:29:26.026Z,2266.67
2022-09-10T18:31:58.128Z,2266.67
2022-09-10T18:34:30.934Z,2266.67
2022-09-10T18:37:03.271Z,2266.67
2022-09-10T18:39:34.703Z,2266.67
2022-09-10T18:42:06.382Z,2266.67
2022-09-10T18:44:37.469Z,2266.67
2022-09-10T18:47:27.964Z,2266.67
2022-09-10T18:50:01.994Z,2266.67
2022-09-10T18:52:32.158Z,2266.67
2022-09-10T18:55:02.507Z,2266.67
2022-09-10T18:57:33.980Z,2266.67
2022-09-10T19:00:04.892Z,2266.67
2022-09-10T19:02:35.125Z,2266.67
2022-09-10T19:05:13.176Z,2266.67
2022-09-10T19:07:43.335Z,2266.67
2022-09-10T19:10:13.501Z,2266.67
2022-09-10T19:12:44.997Z,2266.67
2022-09-10T19:15:15.318Z,2266.67
2022-09-10T19:17:45.459Z,2266.67
2022-09-10T19:20:15.720Z,2266.67
2022-09-10T19:22:45.985Z,2266.67
2022-09-10T19:25:16.374Z,2266.67
2022-09-10T19:27:47.953Z,2266.67
2022-09-10T19:30:18.209Z,2266.67
2022-09-10T19:32:48.338Z,2266.67
2022-09-10T19:35:19.724Z,2266.67
2022-09-10T19:37:49.928Z,2266.67
2022-09-10T19:40:20.074Z,2266.67
2022-09-10T19:42:51.594Z,2266.67
2022-09-10T19:45:21.754Z,2266.67
2022-09-10T19:47:52.645Z,2266.67
2022-09-10T19:50:23.506Z,2266.67
2022-09-10T19:52:54.643Z,2266.67
2022-09-10T19:55:26.945Z,2266.67
2022-09-10T19:58:00.004Z,2266.67
2022-09-10T20:00:45.852Z,2266.67
2022-09-10T20:03:17.110Z,2266.67
2022-09-10T20:05:47.286Z,2266.67
2022-09-10T20:08:17.392Z,2266.67
2022-09-10T20:10:51.908Z,2266.67
2022-09-10T20:13:24.935Z,2266.67
2022-09-10T20:15:55.516Z,2266.67
2022-09-10T20:18:28.007Z,2266.67
2022-09-10T20:21:12.770Z,2266.67
2022-09-10T20:23:44.445Z,2266.67
2022-09-10T20:26:16.896Z,2266.67
2022-09-10T20:28:52.030Z,2266.67
2022-09-10T20:31:24.113Z,2266.67
2022-09-10T20:33:57.203Z,2266.67
2022-09-10T20:36:28.908Z,2266.67
2022-09-10T20:38:59.450Z,2266.67
2022-09-10T20:41:30.527Z,2266.67
2022-09-10T20:44:02.710Z,2266.67
2022-09-10T20:46:34.431Z,2266.67
2022-09-10T20:49:04.848Z,2266.67
2022-09-10T20:51:36.861Z,2266.67
2022-09-10T20:54:09.116Z,2266.67
2022-09-10T20:56:40.274Z,2266.67
2022-09-10T20:59:12.640Z,2266.67
2022-09-10T21:01:46.035Z,2266.67
2022-09-10T21:04:16.467Z,2266.67
2022-09-10T21:06:46.931Z,2266.67
2022-09-10T21:09:17.515Z,2266.67
2022-09-10T21:11:47.974Z,2266.67
2022-09-10T21:14:19.542Z,2266.67
2022-09-10T21:16:49.686Z,2266.67
2022-09-10T21:19:19.953Z,2266.67
2022-09-10T21:21:50.142Z,2266.67
2022-09-10T21:24:22.871Z,2266.67
2022-09-10T21:26:53.273Z,2266.67
2022-09-10T21:29:24.736Z,2266.67
2022-09-10T21:31:56.789Z,2266.67
2022-09-10T21:34:27.010Z,2266.67
2022-09-10T21:36:57.132Z,2266.67
2022-09-10T21:39:27.271Z,2266.67
2022-09-10T21:41:58.315Z,2266.67
2022-09-10T21:44:29.848Z,2266.67
2022-09-10T21:47:00.080Z,2266.67
2022-09-10T21:49:30.654Z,2266.67
2022-09-10T21:52:00.775Z,2266.67
2022-09-10T21:54:30.845Z,2266.67
2022-09-10T21:57:01.042Z,2266.67
2022-09-10T21:59:33.309Z,2266.67
2022-09-10T22:02:04.207Z,2266.67
2022-09-10T22:04:34.951Z,2266.67
2022-09-10T22:07:05.599Z,2266.67
2022-09-10T22:09:36.049Z,2266.67
2022-09-10T22:12:06.643Z,2266.67
2022-09-10T22:14:38.175Z,2266.67
2022-09-10T22:17:08.275Z,2266.67
2022-09-10T22:19:38.993Z,2266.67
2022-09-10T22:22:11.214Z,2266.67
2022-09-10T22:24:41.395Z,2266.67
2022-09-10T22:27:11.537Z,2266.67
2022-09-10T22:29:44.206Z,2266.67
2022-09-10T22:32:14.852Z,2266.67
2022-09-10T22:34:46.092Z,2266.67
2022-09-10T22:37:16.302Z,2266.67
2022-09-10T22:39:46.470Z,2266.67
2022-09-10T22:42:16.649Z,2266.67
2022-09-10T22:44:48.153Z,2266.67
2022-09-10T22:47:18.639Z,2266.67
2022-09-10T22:49:48.767Z,2266.67
2022-09-10T22:52:18.897Z,2266.67
2022-09-10T22:54:49.108Z,2266.67
2022-09-10T22:57:19.286Z,2266.67
2022-09-10T22:59:50.678Z,2266.67
2022-09-10T23:02:20.858Z,2266.67
2022-09-10T23:04:51.122Z,2266.67
2022-09-10T23:07:21.773Z,2266.67
2022-09-10T23:09:51.892Z,1997.90
2022-09-10T23:12:22.566Z,1570.07
2022-09-10T23:14:54.135Z,1826.30
2022-09-10T23:17:24.847Z,1879.03
2022-09-10T23:19:54.994Z,2140.20
2022-09-10T23:22:25.329Z,1890.17
2022-09-10T23:24:55.471Z,2038.30
2022-09-10T23:27:25.759Z,2072.17
2022-09-10T23:29:57.565Z,2076.70
2022-09-10T23:32:27.931Z,2006.93
2022-09-10T23:34:58.057Z,2000.27
2022-09-10T23:37:28.202Z,1904.73
2022-09-10T23:39:58.454Z,1859.13
2022-09-10T23:42:30.020Z,1899.03
2022-09-10T23:45:01.560Z,1735.87
2022-09-10T23:47:32.193Z,1755.30
2022-09-10T23:50:02.499Z,1987.20
2022-09-10T23:52:33.057Z,2032.20
2022-09-10T23:55:03.241Z,1972.40
2022-09-10T23:57:33.775Z,2000.23
